Time;durP1;ratioP1;P1;durP2;ratioP2;P2;SDS_P1;SDS_P2;PMS_P1;PMS_P2;Temp;Humidity;BMP_temperature;BMP_pressure;BME280_temperature;BME280_humidity;BME280_pressure;Samples;Min_cycle;Max_cycle;Signal;HPM_P1;HPM_P2
2023/09/10 00:01:25;;;;;;;17.00;12.23;;;24.50;99.90;;;;;;6037182;23;20407;-85
2023/09/10 00:04:07;;;;;;;14.33;12.30;;;24.40;99.90;;;;;;6034586;23;20418;-85
2023/09/10 00:06:46;;;;;;;17.33;11.93;;;24.50;99.90;;;;;;6033669;23;20776;-83
2023/09/10 00:09:14;;;;;;;15.20;12.87;;;24.50;99.90;;;;;;6032012;23;20485;-84
2023/09/10 00:11:47;;;;;;;14.50;13.13;;;24.50;99.90;;;;;;6029697;23;20533;-84
2023/09/10 00:14:20;;;;;;;13.53;11.77;;;24.60;99.90;;;;;;6031460;23;20442;-84
2023/09/10 00:16:52;;;;;;;18.70;13.30;;;24.60;99.90;;;;;;6030389;23;20411;-84
2023/09/10 00:19:34;;;;;;;14.87;12.70;;;24.60;99.90;;;;;;6028746;23;20414;-84
2023/09/10 00:22:07;;;;;;;14.00;12.53;;;24.50;99.90;;;;;;6032385;23;20454;-86
2023/09/10 00:24:35;;;;;;;16.17;14.40;;;24.50;99.90;;;;;;6030482;23;20418;-85
2023/09/10 00:27:16;;;;;;;13.97;12.53;;;24.50;99.90;;;;;;6030056;23;20418;-83
2023/09/10 00:29:47;;;;;;;15.87;12.20;;;24.30;99.90;;;;;;6029982;23;20406;-85
2023/09/10 00:32:17;;;;;;;15.73;14.10;;;24.30;99.90;;;;;;6032642;23;20435;-86
2023/09/10 00:34:52;;;;;;;18.03;13.63;;;24.30;99.90;;;;;;6030117;23;20453;-84
2023/09/10 00:37:31;;;;;;;15.67;13.10;;;24.20;99.90;;;;;;6030354;23;20476;-83
2023/09/10 00:40:07;;;;;;;13.27;11.23;;;24.10;99.90;;;;;;6032124;23;20436;-85
2023/09/10 00:42:48;;;;;;;14.53;13.13;;;24.00;99.90;;;;;;6032096;23;20422;-85
2023/09/10 00:45:23;;;;;;;16.30;12.57;;;23.90;99.90;;;;;;6043313;23;20497;-86
2023/09/10 00:47:57;;;;;;;16.53;13.97;;;24.00;99.90;;;;;;6053955;23;20421;-85
2023/09/10 00:50:33;;;;;;;16.57;13.97;;;23.90;99.90;;;;;;6055594;23;20445;-84
2023/09/10 00:53:09;;;;;;;13.97;12.50;;;23.70;99.90;;;;;;6053808;23;20700;-86
2023/09/10 00:55:41;;;;;;;15.20;11.37;;;23.60;99.90;;;;;;6031069;23;20489;-84
2023/09/10 00:58:22;;;;;;;14.30;12.50;;;23.60;99.90;;;;;;6031261;23;20398;-84
2023/09/10 01:00:59;;;;;;;15.10;12.60;;;23.90;99.90;;;;;;6033541;23;20406;-84
2023/09/10 01:03:44;;;;;;;13.90;12.27;;;23.80;99.90;;;;;;6035668;23;20442;-84
2023/09/10 01:06:22;;;;;;;15.13;12.40;;;23.70;99.90;;;;;;6034082;23;20410;-85
2023/09/10 01:09:02;;;;;;;13.67;12.10;;;23.60;99.90;;;;;;6034574;23;20487;-86
2023/09/10 01:11:55;;;;;;;14.37;13.17;;;23.70;99.90;;;;;;6054484;23;20391;-85
2023/09/10 01:14:40;;;;;;;14.50;12.87;;;23.60;99.90;;;;;;6058183;23;20442;-84
2023/09/10 01:17:23;;;;;;;15.50;13.87;;;23.60;99.90;;;;;;6082208;23;20425;-86
2023/09/10 01:20:12;;;;;;;14.73;12.70;;;23.50;99.90;;;;;;6055493;23;20505;-86
2023/09/10 01:23:05;;;;;;;13.03;11.70;;;23.40;99.90;;;;;;6050719;23;20509;-84
2023/09/10 01:26:01;;;;;;;13.80;12.40;;;23.50;99.90;;;;;;6035521;23;20477;-84
2023/09/10 01:28:42;;;;;;;15.33;12.30;;;23.50;99.90;;;;;;6057585;23;20494;-84
2023/09/10 01:31:17;;;;;;;14.10;12.70;;;23.60;99.90;;;;;;6035347;23;20442;-84
2023/09/10 01:34:00;;;;;;;14.80;11.53;;;23.50;99.90;;;;;;6033845;23;20445;-84
2023/09/10 01:36:38;;;;;;;16.40;11.83;;;23.50;99.90;;;;;;6031368;23;20955;-85
2023/09/10 01:39:15;;;;;;;16.60;12.90;;;23.50;99.90;;;;;;6032457;23;20421;-85
2023/09/10 01:41:46;;;;;;;12.93;11.70;;;23.40;99.90;;;;;;6032618;23;20517;-83
2023/09/10 01:44:16;;;;;;;14.73;10.50;;;23.40;99.90;;;;;;6031673;23;20466;-84
2023/09/10 01:46:56;;;;;;;13.27;11.03;;;23.30;99.90;;;;;;6040195;23;20447;-86
2023/09/10 01:49:28;;;;;;;15.17;11.80;;;23.50;99.90;;;;;;6048421;23;20422;-85
2023/09/10 01:52:04;;;;;;;17.23;12.30;;;23.50;99.90;;;;;;6047055;23;20434;-85
2023/09/10 01:54:38;;;;;;;13.57;11.50;;;23.40;99.90;;;;;;6070335;23;20446;-85
2023/09/10 01:57:11;;;;;;;13.60;12.00;;;23.40;99.90;;;;;;6038776;23;20438;-85
2023/09/10 01:59:45;;;;;;;13.17;11.70;;;23.20;99.90;;;;;;6037195;23;20486;-83
2023/09/10 02:02:12;;;;;;;17.23;12.73;;;23.10;99.90;;;;;;6047279;23;20465;-84
2023/09/10 02:04:43;;;;;;;14.57;11.93;;;22.90;99.90;;;;;;6086903;23;20481;-84
2023/09/10 02:07:13;;;;;;;13.83;12.37;;;23.00;99.90;;;;;;6090024;23;20500;-84
2023/09/10 02:09:48;;;;;;;17.10;13.13;;;23.10;99.90;;;;;;6085932;23;20504;-83
2023/09/10 02:12:17;;;;;;;15.70;11.60;;;23.10;99.90;;;;;;6060847;23;20476;-86
2023/09/10 02:14:50;;;;;;;18.73;11.80;;;23.10;99.90;;;;;;6068997;23;20444;-84
2023/09/10 02:17:22;;;;;;;15.50;12.70;;;23.00;99.90;;;;;;6071227;23;20604;-86
2023/09/10 02:20:09;;;;;;;15.70;11.60;;;23.00;99.90;;;;;;6070955;23;20413;-86
2023/09/10 02:22:39;;;;;;;14.87;11.27;;;23.10;99.90;;;;;;6071068;23;20468;-84
2023/09/10 02:25:08;;;;;;;12.57;11.20;;;23.10;99.90;;;;;;6068918;23;20436;-84
2023/09/10 02:27:41;;;;;;;13.33;12.03;;;23.00;99.90;;;;;;6070188;23;20413;-84
2023/09/10 02:30:14;;;;;;;11.57;10.47;;;23.00;99.90;;;;;;6069790;23;20413;-85
2023/09/10 02:32:46;;;;;;;17.40;11.20;;;23.20;99.90;;;;;;6067000;23;20944;-86
2023/09/10 02:35:14;;;;;;;12.63;11.37;;;23.30;99.90;;;;;;6068019;23;20437;-85
2023/09/10 02:37:49;;;;;;;15.97;11.43;;;23.10;99.90;;;;;;6059341;23;20406;-86
2023/09/10 02:40:16;;;;;;;15.97;12.10;;;23.10;99.90;;;;;;6060144;23;20879;-85
2023/09/10 02:42:46;;;;;;;12.70;11.50;;;23.00;99.90;;;;;;6059805;23;20464;-83
2023/09/10 02:45:16;;;;;;;15.73;11.00;;;23.10;99.90;;;;;;6062425;23;20417;-85
2023/09/10 02:47:43;;;;;;;13.57;11.20;;;23.10;99.90;;;;;;6059133;23;20492;-86
2023/09/10 02:50:15;;;;;;;13.70;11.10;;;22.90;99.90;;;;;;6058921;23;20873;-86
2023/09/10 02:52:44;;;;;;;15.40;11.80;;;22.90;99.90;;;;;;6053470;23;21208;-84
2023/09/10 02:55:12;;;;;;;13.50;12.10;;;23.00;99.90;;;;;;6057095;23;20488;-85
2023/09/10 02:57:42;;;;;;;14.93;11.57;;;23.00;99.90;;;;;;6054945;23;20414;-84
2023/09/10 03:00:12;;;;;;;14.07;11.90;;;22.90;99.90;;;;;;6058260;23;20406;-85
2023/09/10 03:02:42;;;;;;;13.63;11.63;;;22.90;99.90;;;;;;6060829;23;21143;-84
2023/09/10 03:05:09;;;;;;;14.13;11.60;;;22.70;99.90;;;;;;6069316;23;20410;-84
2023/09/10 03:07:42;;;;;;;14.10;12.20;;;22.60;99.90;;;;;;6066353;23;20416;-85
2023/09/10 03:10:10;;;;;;;15.80;11.00;;;22.60;99.90;;;;;;6065821;23;20421;-85
2023/09/10 03:12:39;;;;;;;14.70;12.50;;;22.60;99.90;;;;;;6065374;23;20507;-84
2023/09/10 03:15:09;;;;;;;13.17;11.67;;;22.60;99.90;;;;;;6065693;23;20445;-84
2023/09/10 03:17:48;;;;;;;13.13;11.80;;;22.70;99.90;;;;;;6059279;23;20417;-84
2023/09/10 03:20:15;;;;;;;14.53;11.87;;;22.80;99.90;;;;;;6059953;23;20543;-85
2023/09/10 03:22:54;;;;;;;13.47;12.13;;;22.70;99.90;;;;;;6058357;23;20485;-84
2023/09/10 03:25:35;;;;;;;15.00;12.77;;;22.60;99.90;;;;;;6060150;23;20501;-84
2023/09/10 03:28:08;;;;;;;14.70;13.00;;;22.40;99.90;;;;;;6060356;23;20413;-85
2023/09/10 03:30:38;;;;;;;13.53;11.60;;;22.40;99.90;;;;;;6060192;23;20429;-84
2023/09/10 03:33:11;;;;;;;15.30;11.43;;;22.30;99.90;;;;;;6059607;23;20437;-86
2023/09/10 03:35:41;;;;;;;13.63;12.33;;;22.30;99.90;;;;;;6059833;23;20453;-85
2023/09/10 03:38:17;;;;;;;14.67;11.97;;;22.30;99.90;;;;;;6060684;23;20441;-84
2023/09/10 03:40:59;;;;;;;14.70;13.20;;;22.10;99.90;;;;;;6062595;23;20513;-85
2023/09/10 03:43:34;;;;;;;13.03;11.73;;;22.10;99.90;;;;;;6062175;23;20418;-85
2023/09/10 03:46:01;;;;;;;12.70;11.40;;;22.10;99.90;;;;;;6064037;23;20414;-83
2023/09/10 03:48:35;;;;;;;17.43;12.70;;;22.20;99.90;;;;;;6067890;23;20801;-84
2023/09/10 03:51:05;;;;;;;14.73;11.90;;;22.20;99.90;;;;;;6066533;23;20404;-84
2023/09/10 03:53:35;;;;;;;12.73;10.13;;;22.20;99.90;;;;;;6059104;23;20448;-85
2023/09/10 03:56:07;;;;;;;12.67;11.37;;;22.00;99.90;;;;;;6059102;23;20450;-84
2023/09/10 03:58:36;;;;;;;13.80;11.40;;;22.10;99.90;;;;;;6058273;23;20409;-84
2023/09/10 04:01:07;;;;;;;15.70;11.60;;;22.10;99.90;;;;;;6058876;23;20524;-86
2023/09/10 04:03:42;;;;;;;14.70;11.03;;;22.10;99.90;;;;;;6059270;23;20445;-84
2023/09/10 04:06:12;;;;;;;12.30;10.77;;;22.00;99.90;;;;;;6066756;23;20430;-84
2023/09/10 04:08:43;;;;;;;13.30;12.00;;;22.10;99.90;;;;;;6065026;23;20416;-84
2023/09/10 04:11:10;;;;;;;12.43;11.33;;;22.20;99.90;;;;;;6075574;23;20424;-85
2023/09/10 04:13:42;;;;;;;13.13;11.70;;;22.00;99.90;;;;;;6079461;23;20424;-84
2023/09/10 04:16:12;;;;;;;14.77;11.40;;;22.00;99.90;;;;;;6081459;23;20489;-85
2023/09/10 04:18:44;;;;;;;13.13;11.70;;;21.90;99.90;;;;;;6073893;23;20416;-83
2023/09/10 04:21:17;;;;;;;16.63;12.50;;;21.90;99.90;;;;;;6066938;23;20484;-84
2023/09/10 04:23:52;;;;;;;13.77;12.47;;;21.90;99.90;;;;;;6065785;23;20501;-85
2023/09/10 04:26:22;;;;;;;14.20;12.20;;;21.90;99.90;;;;;;6063997;23;20432;-84
2023/09/10 04:28:49;;;;;;;15.80;12.23;;;22.10;99.90;;;;;;6063556;23;20504;-84
2023/09/10 04:31:25;;;;;;;13.77;12.47;;;22.10;99.90;;;;;;6061970;23;20413;-84
2023/09/10 04:33:59;;;;;;;17.17;11.97;;;22.10;99.90;;;;;;6060577;23;20406;-84
2023/09/10 04:36:30;;;;;;;16.97;13.00;;;22.00;99.90;;;;;;6060143;23;20484;-84
2023/09/10 04:39:07;;;;;;;13.40;10.63;;;21.90;99.90;;;;;;6059365;23;20413;-85
2023/09/10 04:41:38;;;;;;;13.40;11.40;;;21.90;99.90;;;;;;6059493;23;20716;-86
2023/09/10 04:44:12;;;;;;;12.47;11.17;;;21.90;99.90;;;;;;6063194;23;20413;-84
2023/09/10 04:46:41;;;;;;;12.90;10.97;;;21.90;99.90;;;;;;6060552;23;20433;-84
2023/09/10 04:49:15;;;;;;;16.63;13.00;;;22.00;99.90;;;;;;6059476;23;20484;-83
2023/09/10 04:51:48;;;;;;;12.50;11.30;;;22.00;99.90;;;;;;6060172;23;22180;-83
2023/09/10 04:54:19;;;;;;;13.43;11.80;;;22.00;99.90;;;;;;6048153;23;20478;-83
2023/09/10 04:56:55;;;;;;;13.60;11.87;;;21.90;99.90;;;;;;6057510;23;20413;-83
2023/09/10 04:59:26;;;;;;;14.43;11.30;;;21.60;99.90;;;;;;6057124;23;20428;-84
2023/09/10 05:02:00;;;;;;;12.37;10.93;;;21.70;99.90;;;;;;6057922;23;20512;-84
2023/09/10 05:04:38;;;;;;;13.07;11.87;;;21.80;99.90;;;;;;6059651;23;20512;-85
2023/09/10 05:07:11;;;;;;;13.90;12.00;;;21.90;99.90;;;;;;6059205;23;20952;-84
2023/09/10 05:09:46;;;;;;;12.50;11.30;;;21.80;99.90;;;;;;6059026;23;20417;-85
2023/09/10 05:12:18;;;;;;;12.53;11.23;;;21.70;99.90;;;;;;6060432;23;20759;-85
2023/09/10 05:14:50;;;;;;;14.90;11.73;;;21.70;99.90;;;;;;6059819;23;20449;-86
2023/09/10 05:17:17;;;;;;;15.03;11.60;;;21.90;99.90;;;;;;6058335;23;20447;-86
2023/09/10 05:19:52;;;;;;;13.90;11.70;;;21.80;99.90;;;;;;6059735;23;20469;-85
2023/09/10 05:22:19;;;;;;;15.27;12.43;;;21.80;99.90;;;;;;6058704;23;20493;-84
2023/09/10 05:24:55;;;;;;;13.70;12.40;;;21.90;99.90;;;;;;6058847;23;20425;-84
2023/09/10 05:27:27;;;;;;;15.30;12.03;;;21.80;99.90;;;;;;6061512;23;20467;-85
2023/09/10 05:29:54;;;;;;;12.47;11.23;;;21.70;99.90;;;;;;6064104;23;20436;-84
2023/09/10 05:32:40;;;;;;;13.10;11.13;;;21.60;99.90;;;;;;6055233;23;20440;-84
2023/09/10 05:35:08;;;;;;;14.10;11.73;;;21.60;99.90;;;;;;6057286;23;21122;-84
2023/09/10 05:37:43;;;;;;;15.60;11.87;;;21.60;99.90;;;;;;6061503;23;20417;-83
2023/09/10 05:40:16;;;;;;;13.37;12.10;;;21.60;99.90;;;;;;6063955;23;20409;-85
2023/09/10 05:42:47;;;;;;;13.23;11.60;;;21.50;99.90;;;;;;6061140;23;20516;-84
2023/09/10 05:45:24;;;;;;;13.27;11.20;;;21.40;99.90;;;;;;6059108;23;20416;-84
2023/09/10 05:47:59;;;;;;;14.93;11.10;;;21.60;99.90;;;;;;6059751;23;20409;-85
2023/09/10 05:50:42;;;;;;;12.60;10.33;;;21.70;99.90;;;;;;6058140;23;20437;-84
2023/09/10 05:53:11;;;;;;;11.60;10.40;;;21.80;99.90;;;;;;6058585;23;20493;-84
2023/09/10 05:55:41;;;;;;;13.63;11.60;;;21.80;99.90;;;;;;6058763;23;20445;-84
2023/09/10 05:58:11;;;;;;;14.20;10.40;;;21.80;99.90;;;;;;6058307;23;20468;-84
2023/09/10 06:00:38;;;;;;;13.67;10.93;;;21.80;99.90;;;;;;6058777;23;20457;-84
2023/09/10 06:03:11;;;;;;;12.73;10.10;;;21.90;99.90;;;;;;6062490;23;20437;-83
2023/09/10 06:05:48;;;;;;;12.90;10.10;;;22.00;99.90;;;;;;6064391;23;20424;-84
2023/09/10 06:08:20;;;;;;;14.77;10.60;;;22.10;99.90;;;;;;6060732;23;20532;-86
2023/09/10 06:11:02;;;;;;;14.97;10.53;;;22.80;99.90;;;;;;6057130;23;20401;-83
2023/09/10 06:13:35;;;;;;;11.00;9.47;;;24.60;99.90;;;;;;6051979;23;20441;-84
2023/09/10 06:16:06;;;;;;;15.80;9.47;;;26.20;96.50;;;;;;6060152;23;21293;-85
2023/09/10 06:18:43;;;;;;;13.57;9.63;;;27.00;93.70;;;;;;6065544;23;20485;-84
2023/09/10 06:21:18;;;;;;;16.23;9.30;;;27.40;91.90;;;;;;6070589;23;20409;-82
2023/09/10 06:23:47;;;;;;;11.93;9.63;;;27.70;91.20;;;;;;6059835;23;20833;-88
2023/09/10 06:26:18;;;;;;;16.13;9.57;;;27.60;91.00;;;;;;6060751;23;20422;-85
2023/09/10 06:28:47;;;;;;;14.00;10.20;;;28.00;90.20;;;;;;6061676;23;20492;-85
2023/09/10 06:31:22;;;;;;;10.00;8.97;;;28.00;89.40;;;;;;6059059;23;20425;-85
2023/09/10 06:33:57;;;;;;;12.57;9.70;;;28.00;89.40;;;;;;6058969;23;20418;-85
2023/09/10 06:36:42;;;;;;;16.90;8.80;;;28.00;88.70;;;;;;6049931;23;20541;-85
2023/09/10 06:39:20;;;;;;;12.63;8.37;;;28.10;88.50;;;;;;6060666;23;20385;-86
2023/09/10 06:41:55;;;;;;;9.47;8.43;;;28.10;88.90;;;;;;6078676;23;20530;-85
2023/09/10 06:44:49;;;;;;;13.57;9.20;;;28.80;86.90;;;;;;6079866;23;20441;-84
2023/09/10 06:47:27;;;;;;;13.60;9.90;;;29.60;82.90;;;;;;6077508;23;20512;-84
2023/09/10 06:49:57;;;;;;;10.30;9.20;;;30.20;79.70;;;;;;6067559;23;20435;-87
2023/09/10 06:52:46;;;;;;;10.00;9.00;;;30.40;77.40;;;;;;6064673;23;20437;-85
2023/09/10 06:55:31;;;;;;;10.13;7.60;;;30.20;77.50;;;;;;6076050;23;20472;-83
2023/09/10 06:58:14;;;;;;;9.77;8.83;;;28.20;81.90;;;;;;6076433;23;20459;-84
2023/09/10 07:00:47;;;;;;;12.43;8.90;;;28.30;86.20;;;;;;6076058;23;20427;-83
2023/09/10 07:03:49;;;;;;;10.37;9.20;;;28.60;82.20;;;;;;6068040;23;20449;-83
2023/09/10 07:06:28;;;;;;;12.10;9.53;;;27.10;87.30;;;;;;6067097;23;20409;-84
2023/09/10 07:09:02;;;;;;;11.87;8.77;;;27.00;90.70;;;;;;6064298;23;20511;-85
2023/09/10 07:11:45;;;;;;;10.93;8.87;;;28.40;88.10;;;;;;6064415;23;20508;-84
2023/09/10 07:14:28;;;;;;;9.20;8.23;;;30.20;79.70;;;;;;6064424;23;20445;-84
2023/09/10 07:17:36;;;;;;;11.40;8.80;;;30.50;76.40;;;;;;6064246;23;20421;-87
2023/09/10 07:20:17;;;;;;;8.50;7.43;;;31.50;72.50;;;;;;6062774;23;20445;-85
2023/09/10 07:23:14;;;;;;;9.50;8.50;;;31.40;70.60;;;;;;6061712;23;20438;-85
2023/09/10 07:25:57;;;;;;;9.40;7.80;;;31.90;68.30;;;;;;6062381;23;21446;-84
2023/09/10 07:28:52;;;;;;;9.03;8.13;;;32.30;66.60;;;;;;6062734;23;20418;-85
2023/09/10 07:31:39;;;;;;;13.97;10.67;;;32.10;65.90;;;;;;6068938;23;20441;-84
2023/09/10 07:34:15;;;;;;;9.40;8.00;;;32.40;65.60;;;;;;6066870;23;20928;-85
2023/09/10 07:37:06;;;;;;;;;;;;;;;;;;;;;
2023/09/10 07:39:45;;;;;;;9.90;7.60;;;33.70;60.90;;;;;;6062093;23;20421;-85
2023/09/10 07:42:33;;;;;;;8.03;7.23;;;33.70;59.70;;;;;;6061184;23;20513;-83
2023/09/10 07:45:14;;;;;;;11.30;8.37;;;34.00;59.30;;;;;;6066147;23;20417;-84
2023/09/10 07:47:52;;;;;;;11.27;7.67;;;33.90;59.20;;;;;;6063069;23;20421;-84
2023/09/10 07:50:25;;;;;;;8.13;6.83;;;34.00;58.70;;;;;;6063255;23;20421;-84
2023/09/10 07:53:00;;;;;;;8.93;7.60;;;34.40;58.20;;;;;;6062284;23;20474;-85
2023/09/10 07:55:30;;;;;;;7.90;7.10;;;34.90;57.20;;;;;;6062262;23;20452;-85
2023/09/10 07:58:02;;;;;;;7.80;7.00;;;35.40;55.40;;;;;;6061354;23;20413;-84
2023/09/10 08:00:34;;;;;;;11.23;9.10;;;35.70;55.20;;;;;;6064107;23;20421;-85
2023/09/10 08:03:08;;;;;;;8.83;7.53;;;35.70;54.20;;;;;;6080795;23;20527;-85
2023/09/10 08:05:45;;;;;;;8.63;7.67;;;35.50;54.50;;;;;;6073096;23;20418;-84
2023/09/10 08:08:21;;;;;;;8.73;7.90;;;35.80;53.70;;;;;;6078329;23;20512;-85
2023/09/10 08:10:53;;;;;;;9.00;7.13;;;35.80;53.30;;;;;;6077542;23;21142;-85
2023/09/10 08:13:25;;;;;;;8.20;7.60;;;35.50;53.80;;;;;;6082013;23;20480;-84
2023/09/10 08:15:55;;;;;;;12.37;7.30;;;35.60;54.00;;;;;;6084909;23;20441;-86
2023/09/10 08:18:36;;;;;;;9.90;7.00;;;36.20;53.00;;;;;;6085306;23;20401;-86
2023/09/10 08:21:12;;;;;;;9.17;7.40;;;36.10;52.60;;;;;;6085373;23;20440;-85
2023/09/10 08:23:50;;;;;;;9.37;6.70;;;36.20;51.90;;;;;;6086897;23;20465;-86
2023/09/10 08:26:23;;;;;;;9.63;7.13;;;35.70;52.50;;;;;;6077360;23;20447;-85
2023/09/10 08:28:53;;;;;;;10.40;7.20;;;35.30;53.50;;;;;;6079279;23;20451;-84
2023/09/10 08:31:25;;;;;;;7.53;6.77;;;35.40;53.00;;;;;;6081409;23;20413;-84
2023/09/10 08:34:02;;;;;;;12.87;7.53;;;34.60;54.20;;;;;;6083621;23;20409;-87
2023/09/10 08:36:38;;;;;;;11.50;8.00;;;33.50;56.40;;;;;;6074332;23;20440;-85
2023/09/10 08:39:08;;;;;;;8.83;7.53;;;32.60;57.80;;;;;;6075382;23;20489;-84
2023/09/10 08:42:20;;;;;;;9.53;7.00;;;31.80;60.00;;;;;;6071119;23;20483;-84
2023/09/10 08:45:06;;;;;;;8.33;7.60;;;31.30;62.30;;;;;;6070346;23;20476;-84
2023/09/10 08:47:45;;;;;;;9.03;7.20;;;31.40;62.80;;;;;;6067428;23;20469;-85
2023/09/10 08:50:28;;;;;;;7.87;7.17;;;31.10;63.10;;;;;;6068117;23;20488;-84
2023/09/10 08:53:06;;;;;;;9.00;6.70;;;30.20;65.60;;;;;;6064099;23;20479;-85
2023/09/10 08:55:44;;;;;;;12.13;7.50;;;29.40;69.00;;;;;;6061345;23;20973;-85
2023/09/10 08:58:18;;;;;;;11.40;8.67;;;29.20;70.50;;;;;;6064779;23;20417;-86
2023/09/10 09:00:50;;;;;;;11.47;7.10;;;28.70;73.10;;;;;;6064075;23;20440;-84
2023/09/10 09:03:33;;;;;;;9.50;7.77;;;28.60;74.50;;;;;;6065732;23;20452;-85
2023/09/10 09:06:08;;;;;;;10.47;7.97;;;28.50;75.10;;;;;;6067581;23;20504;-85
2023/09/10 09:08:43;;;;;;;10.03;7.13;;;29.10;75.40;;;;;;6068536;23;20397;-84
2023/09/10 09:11:17;;;;;;;10.07;7.60;;;31.40;68.10;;;;;;6066604;23;20408;-85
2023/09/10 09:13:48;;;;;;;9.10;7.10;;;32.50;61.90;;;;;;6066992;23;20440;-85
2023/09/10 09:16:21;;;;;;;9.40;7.17;;;33.00;59.90;;;;;;6067007;23;20461;-83
2023/09/10 09:18:58;;;;;;;6.73;6.23;;;33.50;59.10;;;;;;6065065;23;21007;-85
2023/09/10 09:21:56;;;;;;;8.40;6.97;;;34.20;57.60;;;;;;6068511;23;20425;-85
2023/09/10 09:24:43;;;;;;;8.40;6.40;;;34.40;56.40;;;;;;6064906;23;20413;-84
2023/09/10 09:27:48;;;;;;;7.97;6.73;;;34.70;56.00;;;;;;6064813;23;20421;-84
2023/09/10 09:30:45;;;;;;;7.47;6.70;;;35.20;54.80;;;;;;6065875;23;20414;-84
2023/09/10 09:33:21;;;;;;;8.23;6.03;;;35.50;53.90;;;;;;6081114;23;20480;-85
2023/09/10 09:36:26;;;;;;;7.93;5.70;;;35.80;53.30;;;;;;6070479;23;21069;-87
2023/09/10 09:38:59;;;;;;;6.50;5.70;;;36.50;51.40;;;;;;6060823;23;20441;-84
2023/09/10 09:41:42;;;;;;;6.87;5.90;;;36.70;50.70;;;;;;6061265;23;20491;-84
2023/09/10 09:44:13;;;;;;;9.87;6.07;;;36.60;50.30;;;;;;6064079;23;20414;-84
2023/09/10 09:46:48;;;;;;;8.60;7.33;;;36.40;50.30;;;;;;6062416;23;20432;-85
2023/09/10 09:49:21;;;;;;;8.10;6.87;;;36.40;50.50;;;;;;6060243;23;21264;-85
2023/09/10 09:52:13;;;;;;;6.83;5.93;;;36.40;50.10;;;;;;6060270;23;21223;-84
2023/09/10 09:54:54;;;;;;;7.90;5.77;;;36.20;50.20;;;;;;6062064;23;20417;-85
2023/09/10 09:58:02;;;;;;;6.57;6.00;;;36.20;49.90;;;;;;6061100;23;20461;-85
2023/09/10 10:00:38;;;;;;;7.93;6.07;;;35.90;50.10;;;;;;6064119;23;20409;-85
2023/09/10 10:03:23;;;;;;;7.97;5.70;;;36.00;50.20;;;;;;6065020;23;20468;-86
2023/09/10 10:06:07;;;;;;;7.30;5.50;;;36.30;49.90;;;;;;6052431;23;20464;-84
2023/09/10 10:09:18;;;;;;;7.10;5.63;;;36.10;49.50;;;;;;6063962;23;20432;-84
2023/09/10 10:11:58;;;;;;;8.57;6.50;;;36.20;49.90;;;;;;6061026;23;20434;-86
2023/09/10 10:14:34;;;;;;;6.17;5.67;;;36.40;49.60;;;;;;6060425;23;20421;-86
2023/09/10 10:17:42;;;;;;;11.30;6.50;;;36.50;49.50;;;;;;5991192;23;20692;-85
2023/09/10 10:20:17;;;;;;;8.87;8.00;;;36.90;48.30;;;;;;5979424;23;20428;-84
2023/09/10 10:23:05;;;;;;;5.77;5.10;;;37.10;48.10;;;;;;6002142;23;20443;-85
2023/09/10 10:26:04;;;;;;;6.13;5.53;;;37.20;47.20;;;;;;5978573;23;20975;-85
2023/09/10 10:28:53;;;;;;;8.67;6.23;;;36.50;47.60;;;;;;6003862;23;20419;-86
2023/09/10 10:31:47;;;;;;;6.57;5.60;;;35.30;48.70;;;;;;5976991;23;20423;-86
2023/09/10 10:34:31;;;;;;;8.97;6.10;;;35.20;48.70;;;;;;5985144;23;20450;-85
2023/09/10 10:37:42;;;;;;;10.13;5.60;;;36.40;47.30;;;;;;5983180;23;20517;-85
2023/09/10 10:40:35;;;;;;;5.80;5.30;;;36.80;46.60;;;;;;5980783;23;20464;-84
2023/09/10 10:43:23;;;;;;;7.90;5.77;;;37.20;45.80;;;;;;5978947;23;20446;-85
2023/09/10 10:46:09;;;;;;;5.60;5.13;;;36.60;46.20;;;;;;6008733;23;20427;-84
2023/09/10 10:48:48;;;;;;;9.60;4.77;;;37.50;45.00;;;;;;5988668;23;20438;-84
2023/09/10 10:51:18;;;;;;;6.23;5.20;;;36.80;45.10;;;;;;5982235;23;20497;-84
2023/09/10 10:53:57;;;;;;;8.50;6.10;;;37.00;45.80;;;;;;6011481;23;20437;-85
2023/09/10 10:56:43;;;;;;;7.30;5.13;;;37.50;45.30;;;;;;6064787;23;21036;-83
2023/09/10 10:59:17;;;;;;;5.03;4.63;;;37.10;45.20;;;;;;6068845;23;20440;-85
2023/09/10 11:02:14;;;;;;;7.67;4.90;;;37.00;45.80;;;;;;6071538;23;20554;-84
2023/09/10 11:04:54;;;;;;;7.47;4.50;;;37.30;45.40;;;;;;6062937;23;20409;-85
2023/09/10 11:07:22;;;;;;;7.73;4.50;;;37.10;45.20;;;;;;6061560;23;20996;-85
2023/09/10 11:09:50;;;;;;;5.50;4.90;;;36.80;45.60;;;;;;6063505;23;20422;-84
2023/09/10 11:12:17;;;;;;;5.07;4.67;;;36.40;46.10;;;;;;6059267;23;20471;-85
2023/09/10 11:14:59;;;;;;;7.20;5.33;;;36.40;46.60;;;;;;6063329;23;20413;-85
2023/09/10 11:17:35;;;;;;;6.33;4.67;;;36.50;46.50;;;;;;6058569;23;20445;-85
2023/09/10 11:20:06;;;;;;;4.80;4.40;;;35.80;47.40;;;;;;6064282;23;20469;-87
2023/09/10 11:23:09;;;;;;;7.27;5.60;;;36.30;47.30;;;;;;6064408;23;20422;-84
2023/09/10 11:25:39;;;;;;;7.53;4.80;;;36.60;46.10;;;;;;6065825;23;20425;-86
2023/09/10 11:28:41;;;;;;;7.87;5.00;;;37.00;46.10;;;;;;6067851;23;20417;-86
2023/09/10 11:31:33;;;;;;;5.10;4.60;;;37.20;45.50;;;;;;6060887;23;20436;-86
2023/09/10 11:34:18;;;;;;;5.83;5.23;;;36.70;46.30;;;;;;6066091;23;20428;-87
2023/09/10 11:36:47;;;;;;;6.17;5.50;;;36.90;45.70;;;;;;6059831;23;20441;-85
2023/09/10 11:39:15;;;;;;;5.53;4.90;;;36.50;46.20;;;;;;6062954;23;20429;-85
2023/09/10 11:42:09;;;;;;;7.10;5.23;;;36.80;45.80;;;;;;6060384;23;20417;-86
2023/09/10 11:44:56;;;;;;;8.17;5.03;;;36.60;46.20;;;;;;6035217;23;20417;-85
2023/09/10 11:47:43;;;;;;;;;;;;;;;;;;;;;
2023/09/10 11:50:35;;;;;;;5.10;4.60;;;36.80;46.30;;;;;;6073998;23;20410;-84
2023/09/10 11:53:07;;;;;;;6.63;4.80;;;37.10;46.00;;;;;;6058789;23;20441;-85
2023/09/10 11:55:44;;;;;;;6.63;5.50;;;37.20;45.80;;;;;;6073134;23;20516;-83
2023/09/10 11:58:28;;;;;;;12.00;5.50;;;37.00;45.80;;;;;;6068306;23;20480;-84
2023/09/10 12:00:58;;;;;;;7.90;5.13;;;36.80;47.00;;;;;;6067637;23;20452;-85
2023/09/10 12:03:30;;;;;;;4.70;4.30;;;37.20;45.30;;;;;;6064209;23;20452;-85
2023/09/10 12:05:58;;;;;;;5.67;4.60;;;36.80;46.20;;;;;;6061824;23;21074;-84
2023/09/10 12:08:28;;;;;;;7.50;4.90;;;37.50;45.10;;;;;;6050771;23;20424;-83
2023/09/10 12:11:19;;;;;;;6.90;4.63;;;37.50;44.90;;;;;;6057142;23;20422;-86
2023/09/10 12:13:54;;;;;;;8.27;5.83;;;37.40;44.80;;;;;;6060348;23;20445;-86
2023/09/10 12:16:28;;;;;;;5.60;4.80;;;37.10;45.30;;;;;;6061431;23;20456;-85
2023/09/10 12:18:59;;;;;;;7.07;5.00;;;37.20;45.50;;;;;;6059942;23;20758;-85
2023/09/10 12:21:42;;;;;;;5.90;4.43;;;36.60;45.70;;;;;;6059654;23;20401;-85
2023/09/10 12:24:13;;;;;;;5.43;4.93;;;36.40;46.20;;;;;;6059873;23;20419;-85
2023/09/10 12:26:53;;;;;;;5.23;4.40;;;37.00;45.60;;;;;;6053548;23;20428;-84
2023/09/10 12:29:30;;;;;;;6.50;4.80;;;36.70;45.60;;;;;;6054009;23;20713;-85
2023/09/10 12:32:24;;;;;;;5.73;4.63;;;37.10;45.80;;;;;;6056460;23;20429;-85
2023/09/10 12:35:00;;;;;;;8.73;4.73;;;37.00;45.20;;;;;;6061199;23;20440;-83
2023/09/10 12:37:52;;;;;;;6.20;4.77;;;37.80;44.80;;;;;;6059716;23;20962;-84
2023/09/10 12:40:24;;;;;;;5.30;4.67;;;37.80;44.10;;;;;;6061524;23;20417;-85
2023/09/10 12:42:58;;;;;;;7.70;5.20;;;37.40;44.80;;;;;;6060059;23;20437;-85
2023/09/10 12:45:29;;;;;;;5.70;4.50;;;37.40;44.80;;;;;;6063319;23;20917;-85
2023/09/10 12:47:58;;;;;;;4.87;4.47;;;37.30;45.20;;;;;;6061982;23;20448;-85
2023/09/10 12:50:38;;;;;;;6.97;6.37;;;37.70;44.30;;;;;;6063323;23;20420;-84
2023/09/10 12:53:15;;;;;;;4.90;4.30;;;37.70;44.10;;;;;;6062328;23;20449;-86
2023/09/10 12:55:56;;;;;;;7.80;4.73;;;37.20;44.90;;;;;;6065469;23;20401;-86
2023/09/10 12:58:27;;;;;;;5.63;4.87;;;36.80;45.50;;;;;;6079146;23;20401;-84
2023/09/10 13:01:25;;;;;;;5.27;4.77;;;37.30;44.90;;;;;;6079169;23;20397;-86
2023/09/10 13:04:02;;;;;;;6.20;5.33;;;37.80;44.40;;;;;;6083227;23;20437;-86
2023/09/10 13:06:52;;;;;;;9.83;5.50;;;37.20;44.90;;;;;;6072912;23;21177;-87
2023/09/10 13:09:37;;;;;;;7.83;5.07;;;36.90;45.40;;;;;;6072494;23;20409;-85
2023/09/10 13:12:12;;;;;;;8.20;5.40;;;37.20;45.20;;;;;;6070072;23;20508;-88
2023/09/10 13:14:57;;;;;;;5.93;5.40;;;37.60;44.70;;;;;;6073644;23;20428;-84
2023/09/10 13:17:33;;;;;;;5.50;4.47;;;37.30;44.60;;;;;;6059058;23;20444;-86
2023/09/10 13:20:09;;;;;;;5.43;4.80;;;37.00;44.90;;;;;;6074480;23;20416;-84
2023/09/10 13:22:49;;;;;;;7.40;5.50;;;37.10;45.00;;;;;;6074786;23;20443;-88
2023/09/10 13:25:24;;;;;;;5.50;4.93;;;37.30;44.60;;;;;;6069447;23;20401;-85
2023/09/10 13:28:20;;;;;;;8.00;4.87;;;37.50;44.30;;;;;;6065625;23;20449;-87
2023/09/10 13:30:53;;;;;;;4.70;4.30;;;37.20;44.50;;;;;;6065225;23;20788;-85